Time;durP1;ratioP1;P1;durP2;ratioP2;P2;SDS_P1;SDS_P2;PMS_P1;PMS_P2;Temp;Humidity;BMP_temperature;BMP_pressure;BME280_temperature;BME280_humidity;BME280_pressure;Samples;Min_cycle;Max_cycle;Signal;HPM_P1;HPM_P2
2023/01/30 00:01:02;;;;;;;20.00;12.70;;;;;;;3.72;50.04;100511.97;4248053;33;34138;-82
2023/01/30 00:03:30;;;;;;;26.00;13.25;;;;;;;4.19;49.02;100516.69;4247811;33;34917;-81
2023/01/30 00:05:57;;;;;;;23.70;12.45;;;;;;;3.60;50.10;100510.97;4259050;33;33830;-80
2023/01/30 00:08:25;;;;;;;20.30;11.93;;;;;;;3.49;49.96;100509.16;4248269;33;33823;-80
2023/01/30 00:10:53;;;;;;;22.90;12.48;;;;;;;3.29;50.54;100503.25;4260500;33;34325;-82
2023/01/30 00:13:20;;;;;;;27.65;13.18;;;;;;;2.31;53.32;100505.00;4247502;33;33520;-80
2023/01/30 00:15:48;;;;;;;23.73;13.27;;;;;;;2.87;52.29;100501.37;4259948;33;33173;-82
2023/01/30 00:18:15;;;;;;;21.92;12.32;;;;;;;2.83;52.25;100501.00;4259652;33;33938;-82
2023/01/30 00:20:43;;;;;;;23.15;13.65;;;;;;;2.67;52.94;100497.09;4259305;33;34556;-81
2023/01/30 00:23:10;;;;;;;22.42;12.90;;;;;;;2.99;52.21;100500.63;4259310;33;34781;-82
2023/01/30 00:25:38;;;;;;;25.95;13.23;;;;;;;2.73;52.77;100499.28;4258038;33;33967;-83
2023/01/30 00:28:06;;;;;;;27.13;14.13;;;;;;;3.00;52.04;100493.09;4259524;33;34783;-81
2023/01/30 00:30:33;;;;;;;26.00;13.40;;;;;;;2.63;52.74;100499.28;4259233;33;34602;-83
2023/01/30 00:33:01;;;;;;;23.80;12.73;;;;;;;2.05;54.02;100493.34;4259249;33;34651;-80
2023/01/30 00:35:28;;;;;;;32.17;18.05;;;;;;;2.05;54.04;100501.03;4257496;33;34403;-81
2023/01/30 00:37:57;;;;;;;27.80;15.23;;;;;;;0.04;60.53;100506.13;4246058;33;32706;-83
2023/01/30 00:40:26;;;;;;;25.73;13.10;;;;;;;0.02;61.79;100502.53;4245627;33;33962;-80
2023/01/30 00:48:29;;;;;;;25.80;14.87;;;;;;;-1.36;67.29;100496.34;4249088;33;34061;-81
2023/01/30 00:50:56;;;;;;;31.75;16.60;;;;;;;-1.06;66.22;100499.50;4257866;33;33781;-81
2023/01/30 00:53:24;;;;;;;31.25;15.43;;;;;;;-1.96;69.62;100495.22;4259736;33;34751;-82
2023/01/30 00:55:52;;;;;;;27.35;16.17;;;;;;;0.93;61.60;100481.47;4247341;33;33569;-80
2023/01/30 00:58:21;;;;;;;32.65;17.48;;;;;;;3.73;51.45;100472.78;4259458;33;34613;-82
2023/01/30 01:00:49;;;;;;;30.48;16.92;;;;;;;3.27;52.01;100468.94;4259469;33;34624;-83
2023/01/30 01:03:17;;;;;;;29.63;16.80;;;;;;;-0.22;62.26;100483.19;4259528;33;33904;-80
2023/01/30 01:05:45;;;;;;;31.48;17.42;;;;;;;-0.57;64.42;100474.63;4259352;33;33417;-82
2023/01/30 01:08:13;;;;;;;29.80;15.65;;;;;;;2.29;56.37;100473.28;4259240;33;33045;-82
2023/01/30 01:10:41;;;;;;;27.50;15.20;;;;;;;2.09;57.06;100462.19;4259483;33;33690;-83
2023/01/30 01:13:09;;;;;;;29.17;15.80;;;;;;;-0.18;61.96;100469.12;4259004;33;33979;-83
2023/01/30 01:15:37;;;;;;;27.17;14.35;;;;;;;-0.50;64.06;100466.84;4258133;33;32726;-79
2023/01/30 01:18:05;;;;;;;26.15;14.87;;;;;;;3.25;53.49;100455.13;4247108;33;33943;-83
2023/01/30 01:20:33;;;;;;;24.27;13.62;;;;;;;4.63;48.62;100446.59;4247128;33;33536;-80
2023/01/30 01:23:02;;;;;;;27.05;16.98;;;;;;;2.05;54.50;100460.13;4244297;33;34686;-81
2023/01/30 01:25:29;;;;;;;;;;;;;;;0.35;60.67;100450.47;4260219;33;34349;-81
2023/01/30 01:27:57;;;;;;;27.13;14.45;;;;;;;0.11;60.47;100462.62;4259581;33;34980;-80
2023/01/30 01:30:24;;;;;;;27.27;14.65;;;;;;;-0.86;64.20;100449.72;4259549;33;33670;-82
2023/01/30 01:32:52;;;;;;;29.47;17.93;;;;;;;0.40;62.62;100449.25;4257500;33;34858;-84
2023/01/30 01:35:19;;;;;;;28.17;17.15;;;;;;;2.00;55.35;100446.03;4258517;33;33924;-81
2023/01/30 01:37:47;;;;;;;27.83;17.83;;;;;;;1.98;55.29;100447.56;4258726;33;32323;-83
2023/01/30 01:43:21;;;;;;;31.85;18.50;;;;;;;-0.37;61.76;100452.03;4246960;33;34030;-81
2023/01/30 01:46:02;;;;;;;;;;;;;;;-1.23;66.13;100438.41;4260088;33;33426;-81
2023/01/30 01:48:53;;;;;;;27.58;15.80;;;;;;;1.70;56.42;100433.97;4259432;33;34267;-80
2023/01/30 01:51:48;;;;;;;26.73;15.35;;;;;;;2.30;53.58;100423.97;4258444;33;34603;-81
2023/01/30 01:54:21;;;;;;;27.30;14.13;;;;;;;3.78;48.61;100418.44;4252617;33;34219;-82
2023/01/30 01:56:49;;;;;;;29.40;14.82;;;;;;;0.16;58.66;100420.69;4247118;33;33809;-81
2023/01/30 01:59:23;;;;;;;26.77;14.50;;;;;;;0.17;59.78;100417.41;4259058;33;33751;-80
2023/01/30 02:01:54;;;;;;;28.07;15.13;;;;;;;0.34;59.74;100413.00;4260354;33;34428;-82
2023/01/30 02:07:07;;;;;;;28.15;14.35;;;;;;;1.31;55.68;100402.47;4257033;33;33463;-82
2023/01/30 02:09:36;;;;;;;27.92;14.23;;;;;;;-0.06;60.10;100406.63;4259298;33;33886;-83
2023/01/30 02:12:04;;;;;;;28.23;13.70;;;;;;;-0.73;61.97;100395.91;4257029;33;34074;-82
2023/01/30 02:14:33;;;;;;;27.65;14.48;;;;;;;-0.80;63.03;100386.75;4254301;33;33754;-80
2023/01/30 02:17:00;;;;;;;28.73;15.80;;;;;;;-1.50;64.95;100386.59;4259638;33;33476;-83
2023/01/30 02:19:40;;;;;;;33.72;16.62;;;;;;;-1.68;66.84;100392.31;4245820;33;33476;-81
2023/01/30 02:22:27;;;;;;;28.42;16.15;;;;;;;-1.53;65.83;100387.91;4259145;33;33726;-80
2023/01/30 02:25:13;;;;;;;33.17;17.08;;;;;;;-1.37;65.59;100377.62;4246450;33;33951;-83
2023/01/30 02:27:57;;;;;;;31.48;17.00;;;;;;;-1.96;67.41;100383.53;4257797;33;33692;-80
2023/01/30 02:30:40;;;;;;;32.20;16.65;;;;;;;-1.76;68.82;100373.75;4260313;33;34128;-82
2023/01/30 02:33:22;;;;;;;30.80;16.23;;;;;;;0.24;59.20;100362.81;4257428;33;33795;-81
2023/01/30 02:36:01;;;;;;;26.00;14.15;;;;;;;2.01;55.18;100355.87;4239189;33;34162;-80
2023/01/30 02:38:42;;;;;;;23.75;13.27;;;;;;;3.60;49.50;100352.13;4260096;33;33631;-80
2023/01/30 02:41:14;;;;;;;24.33;13.73;;;;;;;3.73;48.13;100347.22;4247642;33;34065;-80
2023/01/30 02:44:17;;;;;;;27.73;15.07;;;;;;;2.66;50.47;100352.03;4259395;33;34632;-81
2023/01/30 02:46:53;;;;;;;29.85;16.77;;;;;;;3.64;48.01;100333.66;4252074;33;34227;-81
2023/01/30 02:49:28;;;;;;;31.23;15.70;;;;;;;-0.42;59.35;100341.25;4247392;33;34093;-80
2023/01/30 02:51:59;;;;;;;28.58;15.07;;;;;;;1.53;53.89;100338.91;4249136;33;33849;-81
2023/01/30 02:54:26;;;;;;;;;;;;;;;1.90;53.90;100316.59;4245634;33;34534;-81
2023/01/30 02:56:56;;;;;;;;;;;;;;;2.26;51.16;100317.06;4258662;33;34971;-81
2023/01/30 02:59:24;;;;;;;;;;;;;;;0.61;56.05;100320.38;4252052;33;34563;-82
2023/01/30 03:02:02;;;;;;;;;;;;;;;0.74;57.63;100319.84;4259555;33;34239;-80
2023/01/30 03:04:30;;;;;;;;;;;;;;;1.09;55.39;100311.94;4244422;33;34284;-83
2023/01/30 03:07:29;;;;;;;28.60;15.32;;;;;;;1.66;54.74;100304.22;4257674;33;34970;-81
2023/01/30 03:10:23;;;;;;;28.25;14.35;;;;;;;-2.27;65.95;100320.34;4255082;33;34156;-80
2023/01/30 03:13:18;;;;;;;28.92;15.80;;;;;;;-1.77;66.49;100313.56;4259851;33;34360;-83
2023/01/30 03:15:59;;;;;;;31.30;15.52;;;;;;;-2.78;69.67;100325.22;4256253;33;33700;-83
2023/01/30 03:18:26;;;;;;;34.30;17.08;;;;;;;-2.28;68.37;100328.69;4246461;33;34803;-82
2023/01/30 03:20:54;;;;;;;28.70;15.68;;;;;;;-2.73;69.87;100325.69;4246661;33;33861;-81
2023/01/30 03:23:22;;;;;;;31.92;15.48;;;;;;;-2.55;69.58;100325.81;4257685;33;34658;-80
2023/01/30 03:25:50;;;;;;;34.70;16.73;;;;;;;-2.44;69.62;100322.75;4258593;33;33879;-81
2023/01/30 03:28:20;;;;;;;33.38;16.70;;;;;;;-2.13;68.29;100314.13;4258321;33;34547;-81
2023/01/30 03:30:47;;;;;;;29.80;15.30;;;;;;;-2.28;69.13;100318.56;4246974;33;33837;-82
2023/01/30 03:33:15;;;;;;;31.70;15.52;;;;;;;-2.00;68.18;100312.09;4259224;33;33495;-83
2023/01/30 03:35:45;;;;;;;29.77;15.35;;;;;;;-1.55;66.78;100319.16;4258539;33;33230;-80
2023/01/30 03:38:13;;;;;;;31.67;15.98;;;;;;;-1.80;67.40;100309.09;4247395;33;33026;-81
2023/01/30 03:40:41;;;;;;;29.63;15.75;;;;;;;-2.14;67.67;100303.81;4249105;33;33860;-82
2023/01/30 03:43:09;;;;;;;32.63;16.30;;;;;;;-2.07;67.92;100298.63;4257545;33;34513;-82
2023/01/30 03:45:36;;;;;;;33.08;18.30;;;;;;;-1.63;66.24;100297.16;4260570;33;32918;-81
2023/01/30 03:48:04;;;;;;;29.35;16.87;;;;;;;-2.17;68.15;100294.25;4248587;33;33616;-81
2023/01/30 03:50:32;;;;;;;32.75;16.50;;;;;;;-1.68;67.47;100295.78;4248209;33;34269;-82
2023/01/30 03:53:00;;;;;;;30.55;15.98;;;;;;;-1.18;65.18;100292.31;4260271;33;34429;-81
2023/01/30 03:55:28;;;;;;;28.27;15.55;;;;;;;-1.29;65.66;100292.91;4261633;33;33473;-80
2023/01/30 03:57:56;;;;;;;34.92;17.83;;;;;;;-2.42;68.20;100295.91;4249315;33;33840;-80
2023/01/30 04:00:26;;;;;;;33.05;16.77;;;;;;;-2.91;71.44;100298.41;4261894;33;33122;-81
2023/01/30 04:02:55;;;;;;;31.52;16.77;;;;;;;-0.17;62.78;100279.94;4259439;33;33078;-80
2023/01/30 04:05:42;;;;;;;33.92;16.73;;;;;;;-1.31;64.57;100279.16;4261055;33;33727;-81
2023/01/30 04:08:10;;;;;;;30.42;16.45;;;;;;;-1.78;66.96;100281.28;4260597;33;34739;-80
2023/01/30 04:10:37;;;;;;;30.80;16.42;;;;;;;1.69;55.56;100269.62;4261537;33;33289;-82
2023/01/30 04:13:05;;;;;;;28.42;15.23;;;;;;;2.05;53.72;100260.81;4261149;33;33851;-82
2023/01/30 04:15:33;;;;;;;27.02;14.90;;;;;;;3.25;49.95;100255.41;4260934;33;33531;-82
2023/01/30 04:18:00;;;;;;;32.05;16.77;;;;;;;0.73;55.33;100264.50;4262092;33;34190;-81
2023/01/30 04:20:29;;;;;;;29.00;16.55;;;;;;;-1.21;63.13;100264.06;4261860;33;33897;-83
2023/01/30 04:22:57;;;;;;;30.73;15.85;;;;;;;-1.34;65.02;100273.78;4261412;33;33710;-83
2023/01/30 04:25:24;;;;;;;31.00;15.43;;;;;;;-2.08;67.64;100276.56;4261366;33;33918;-83
2023/01/30 04:27:52;;;;;;;29.67;15.43;;;;;;;-0.57;61.89;100260.91;4262308;33;34193;-81
2023/01/30 04:30:20;;;;;;;31.02;14.80;;;;;;;-2.05;66.32;100266.69;4261587;33;34451;-80
2023/01/30 04:32:48;;;;;;;35.05;15.57;;;;;;;-2.27;67.72;100264.50;4260451;33;32373;-80
2023/01/30 04:35:16;;;;;;;30.20;15.00;;;;;;;-2.65;69.00;100263.09;4261043;33;34039;-80
2023/01/30 04:37:44;;;;;;;31.25;15.57;;;;;;;-1.69;66.10;100261.00;4261353;33;34774;-81
2023/01/30 04:40:12;;;;;;;34.70;17.92;;;;;;;-1.53;65.49;100256.69;4261601;33;34401;-82
2023/01/30 04:42:40;;;;;;;32.33;17.05;;;;;;;-1.55;65.06;100258.19;4261100;33;34631;-81
2023/01/30 04:45:10;;;;;;;29.77;15.88;;;;;;;-1.06;63.43;100250.31;4258920;33;34696;-81
2023/01/30 04:47:38;;;;;;;32.78;15.63;;;;;;;-1.05;62.98;100234.28;4261708;33;33480;-81
2023/01/30 04:50:06;;;;;;;35.13;16.45;;;;;;;-1.19;63.05;100239.69;4260576;33;34021;-81
2023/01/30 04:52:33;;;;;;;37.92;16.85;;;;;;;-0.94;62.40;100226.84;4257972;33;33879;-82
2023/01/30 04:55:01;;;;;;;34.70;15.77;;;;;;;0.34;58.92;100221.88;4258758;33;32060;-81
2023/01/30 04:57:29;;;;;;;30.10;16.30;;;;;;;1.10;56.77;100221.88;4260530;33;34759;-83
2023/01/30 04:59:57;;;;;;;31.50;15.23;;;;;;;1.38;56.12;100220.13;4247823;33;35050;-81
2023/01/30 05:02:25;;;;;;;28.25;14.45;;;;;;;1.11;55.56;100224.56;4260312;33;34561;-81
2023/01/30 05:04:52;;;;;;;28.87;13.98;;;;;;;0.08;58.13;100220.37;4248491;33;33600;-82
2023/01/30 05:07:20;;;;;;;35.92;15.75;;;;;;;-0.14;58.52;100226.75;4261120;33;34678;-81
2023/01/30 05:09:48;;;;;;;43.05;18.98;;;;;;;-0.75;60.11;100220.22;4261148;33;33679;-81
2023/01/30 05:12:15;;;;;;;43.60;18.73;;;;;;;-0.38;58.67;100218.62;4261202;33;34166;-80
2023/01/30 05:14:45;;;;;;;34.30;16.60;;;;;;;-0.42;58.85;100211.44;4259633;33;34099;-81
2023/01/30 05:17:12;;;;;;;31.45;15.70;;;;;;;-0.60;59.40;100216.59;4260000;33;34082;-81
2023/01/30 05:19:40;;;;;;;27.50;13.65;;;;;;;-0.15;58.46;100222.44;4261137;33;34341;-83
2023/01/30 05:22:07;;;;;;;27.75;14.35;;;;;;;-0.49;59.16;100216.72;4260797;33;33545;-82
2023/01/30 05:24:35;;;;;;;29.15;13.95;;;;;;;-0.53;58.51;100212.97;4259904;33;34202;-83
2023/01/30 05:27:03;;;;;;;31.52;14.20;;;;;;;-0.34;58.35;100215.59;4260450;33;34448;-82
2023/01/30 05:29:31;;;;;;;27.60;14.48;;;;;;;-0.31;58.21;100213.37;4260689;33;32359;-83
2023/01/30 05:31:58;;;;;;;27.80;14.65;;;;;;;-0.43;58.51;100210.53;4247193;33;33599;-81
2023/01/30 05:34:26;;;;;;;27.60;13.98;;;;;;;0.23;57.24;100219.97;4260995;33;32630;-81
2023/01/30 05:36:53;;;;;;;32.00;15.98;;;;;;;-0.24;57.80;100208.06;4260456;33;34152;-83
2023/01/30 05:39:20;;;;;;;;;;;;;;;0.02;56.96;100206.16;4248169;33;33433;-83
2023/01/30 05:41:48;;;;;;;32.75;16.45;;;;;;;-0.24;58.11;100202.97;4259335;33;33736;-83
2023/01/30 05:44:16;;;;;;;40.28;18.30;;;;;;;-0.56;59.29;100201.59;4257134;33;33594;-81
2023/01/30 05:46:43;;;;;;;46.65;20.58;;;;;;;-0.98;60.01;100209.50;4258790;33;34573;-83
2023/01/30 05:49:11;;;;;;;41.53;20.00;;;;;;;-1.96;63.77;100211.78;4258490;33;33834;-81
2023/01/30 05:51:38;;;;;;;41.17;19.30;;;;;;;-2.34;65.66;100211.31;4254588;33;33683;-81
2023/01/30 05:54:05;;;;;;;;;;;;;;;-1.90;65.27;100217.47;4259072;33;34714;-81
2023/01/30 05:56:33;;;;;;;;;;;;;;;-1.30;63.06;100209.78;4259261;33;35061;-82
2023/01/30 05:59:01;;;;;;;;;;;;;;;-1.15;62.33;100215.47;4248554;33;33717;-81
2023/01/30 06:01:28;;;;;;;40.85;20.40;;;;;;;-2.33;66.45;100213.13;4245803;33;33892;-81
2023/01/30 06:03:57;;;;;;;42.28;21.62;;;;;;;-2.07;66.52;100218.31;4256236;33;34444;-82
2023/01/30 06:06:24;;;;;;;41.30;21.60;;;;;;;-2.90;69.50;100229.22;4257964;33;33997;-82
2023/01/30 06:08:53;;;;;;;61.58;28.35;;;;;;;-2.65;69.02;100228.47;4245857;33;33623;-81
2023/01/30 06:11:22;;;;;;;47.60;22.13;;;;;;;-3.00;70.04;100225.72;4245903;33;34449;-82
2023/01/30 06:13:49;;;;;;;44.13;21.73;;;;;;;-3.03;71.10;100217.81;4241186;33;34058;-81
2023/01/30 06:16:18;;;;;;;51.35;25.33;;;;;;;-2.81;69.95;100218.41;4258621;33;33769;-81
2023/01/30 06:18:46;;;;;;;52.47;25.15;;;;;;;-2.83;70.28;100213.91;4258127;33;33839;-82
2023/01/30 06:21:14;;;;;;;46.13;22.50;;;;;;;-2.24;68.50;100216.63;4258928;33;33850;-81
2023/01/30 06:23:41;;;;;;;40.00;20.52;;;;;;;-2.28;68.28;100211.97;4258710;33;33945;-81
2023/01/30 06:26:09;;;;;;;42.25;20.60;;;;;;;-1.40;65.71;100220.69;4259641;33;34220;-81
2023/01/30 06:28:36;;;;;;;;;;;;;;;-1.55;65.32;100217.53;4260275;33;34718;-82
2023/01/30 06:31:04;;;;;;;;;;;;;;;-0.48;62.52;100208.34;4260625;33;34100;-81
2023/01/30 06:33:32;;;;;;;39.30;19.95;;;;;;;-1.12;63.77;100221.75;4258515;33;34872;-82
2023/01/30 06:36:00;;;;;;;36.15;19.27;;;;;;;0.61;59.19;100207.31;4260229;33;34174;-82
2023/01/30 06:38:27;;;;;;;38.65;18.77;;;;;;;1.16;57.78;100202.91;4261739;33;33346;-82
2023/01/30 06:40:55;;;;;;;33.95;18.75;;;;;;;1.50;56.27;100193.09;4247595;33;34277;-82
2023/01/30 06:43:22;;;;;;;40.17;19.35;;;;;;;0.86;57.27;100198.53;4259094;33;33384;-82
2023/01/30 06:45:50;;;;;;;49.53;20.33;;;;;;;0.51;57.75;100191.16;4255994;33;33851;-82
2023/01/30 06:48:18;;;;;;;38.42;19.12;;;;;;;0.02;58.97;100181.62;4255751;33;33813;-82
2023/01/30 06:50:46;;;;;;;39.25;19.17;;;;;;;0.14;59.83;100184.38;4257276;33;33928;-82
2023/01/30 06:53:14;;;;;;;42.15;20.60;;;;;;;0.19;59.82;100184.06;4255653;33;33444;-83
2023/01/30 06:55:42;;;;;;;44.17;20.58;;;;;;;0.95;58.08;100191.72;4259271;33;33667;-82
2023/01/30 06:58:11;;;;;;;41.17;22.27;;;;;;;0.83;58.49;100179.50;4259063;33;33864;-82
2023/01/30 07:00:41;;;;;;;46.25;22.92;;;;;;;0.96;57.90;100193.47;4245381;33;32411;-82
2023/01/30 07:03:10;;;;;;;36.92;18.55;;;;;;;1.08;58.08;100187.69;4260172;33;33684;-81
2023/01/30 07:05:38;;;;;;;38.53;18.98;;;;;;;1.03;58.51;100184.75;4256820;33;34167;-82
2023/01/30 07:08:06;;;;;;;40.53;19.15;;;;;;;0.32;61.14;100180.06;4263027;33;33757;-82
2023/01/30 07:10:34;;;;;;;39.75;19.83;;;;;;;0.42;60.78;100176.69;4253255;33;90932;-82
2023/01/30 07:13:02;;;;;;;37.08;18.77;;;;;;;0.74;60.30;100174.50;4259615;33;33599;-82
2023/01/30 07:15:31;;;;;;;43.28;20.92;;;;;;;2.68;55.45;100171.47;4260634;33;34717;-81
2023/01/30 07:17:59;;;;;;;35.83;17.67;;;;;;;1.71;56.40;100181.28;4245827;33;33558;-82
2023/01/30 07:20:28;;;;;;;37.65;16.90;;;;;;;1.14;60.64;100173.81;4260780;33;33678;-81
2023/01/30 07:22:56;;;;;;;34.63;16.65;;;;;;;0.55;60.49;100187.25;4264052;33;34268;-82
2023/01/30 07:25:25;;;;;;;32.13;14.98;;;;;;;2.51;55.08;100172.66;4258575;33;34729;-81
2023/01/30 07:27:58;;;;;;;31.73;16.70;;;;;;;2.08;57.81;100178.41;4261828;33;33068;-82
2023/01/30 07:30:28;;;;;;;33.88;17.02;;;;;;;1.72;57.29;100177.06;4246250;33;33934;-81
2023/01/30 07:32:56;;;;;;;33.92;16.00;;;;;;;1.34;60.96;100167.91;4260910;33;34270;-82
2023/01/30 07:35:25;;;;;;;30.30;14.70;;;;;;;2.66;54.63;100157.66;4247782;33;35013;-82
2023/01/30 07:37:53;;;;;;;34.20;15.65;;;;;;;1.46;58.74;100167.19;4256775;33;34061;-82
2023/01/30 07:40:21;;;;;;;33.08;15.50;;;;;;;1.23;60.03;100166.06;4256516;33;34779;-82
2023/01/30 07:42:59;;;;;;;31.85;14.90;;;;;;;2.30;58.21;100176.00;4246839;33;33898;-82
2023/01/30 07:45:34;;;;;;;31.12;14.77;;;;;;;4.21;52.42;100168.03;4260510;33;34965;-81
2023/01/30 07:48:02;;;;;;;35.33;15.85;;;;;;;3.98;52.98;100161.16;4247401;33;33786;-82
2023/01/30 07:50:30;;;;;;;37.35;17.02;;;;;;;0.85;62.41;100172.87;4259692;33;33945;-81
2023/01/30 07:52:57;;;;;;;35.40;16.75;;;;;;;2.47;58.52;100159.47;4262344;33;34420;-80
2023/01/30 07:55:26;;;;;;;30.20;14.48;;;;;;;1.75;60.53;100152.69;4261085;33;34324;-82
2023/01/30 07:57:53;;;;;;;36.40;15.55;;;;;;;3.66;56.19;100152.78;4261341;33;34542;-82
2023/01/30 08:00:21;;;;;;;31.02;16.00;;;;;;;4.53;52.92;100145.69;4260351;33;33683;-82
2023/01/30 08:02:49;;;;;;;37.65;16.33;;;;;;;6.28;48.34;100143.47;4248161;33;33074;-82
2023/01/30 08:05:16;;;;;;;44.20;18.40;;;;;;;6.62;46.77;100135.37;4260252;33;34178;-81
2023/01/30 08:07:46;;;;;;;32.00;15.57;;;;;;;6.97;45.97;100129.06;4260620;33;34022;-81
2023/01/30 08:10:14;;;;;;;32.13;15.23;;;;;;;7.00;45.66;100116.41;4261350;33;33997;-82
2023/01/30 08:12:42;;;;;;;26.58;13.25;;;;;;;6.85;46.40;100112.03;4260335;33;33857;-81
2023/01/30 08:15:10;;;;;;;29.85;14.32;;;;;;;7.46;44.70;100120.19;4261236;33;34833;-81
2023/01/30 08:17:37;;;;;;;29.23;15.25;;;;;;;5.90;48.01;100100.56;4255786;33;34447;-81
2023/01/30 08:20:06;;;;;;;32.72;16.70;;;;;;;5.63;50.85;100097.00;4260591;33;33878;-82
2023/01/30 08:22:33;;;;;;;29.92;13.80;;;;;;;6.28;48.04;100069.75;4261780;33;33273;-81
2023/01/30 08:25:01;;;;;;;27.98;13.50;;;;;;;6.21;49.16;100071.81;4261642;33;33820;-81
2023/01/30 08:27:29;;;;;;;29.10;14.55;;;;;;;4.62;52.66;100073.66;4261767;33;34369;-82
2023/01/30 08:29:56;;;;;;;28.95;14.60;;;;;;;5.34;52.54;100074.44;4259910;33;33606;-82
2023/01/30 08:32:24;;;;;;;27.55;15.15;;;;;;;5.91;50.96;100067.25;4259504;33;33718;-82
2023/01/30 08:34:51;;;;;;;30.60;15.50;;;;;;;4.69;54.02;100080.09;4262266;33;34322;-82
2023/01/30 08:37:19;;;;;;;33.35;16.25;;;;;;;3.81;56.64;100080.47;4260276;33;33401;-82
2023/01/30 08:39:46;;;;;;;37.03;17.60;;;;;;;5.93;51.97;100069.94;4260465;33;33483;-82
2023/01/30 08:42:14;;;;;;;31.60;16.67;;;;;;;5.81;51.10;100063.94;4260108;33;33608;-82
2023/01/30 08:44:41;;;;;;;44.50;23.73;;;;;;;6.28;50.25;100063.72;4260658;33;32712;-80
2023/01/30 08:47:09;;;;;;;81.28;40.28;;;;;;;7.77;46.15;100059.28;4260747;33;33485;-80
2023/01/30 08:49:36;;;;;;;36.28;22.52;;;;;;;7.19;47.33;100062.66;4257477;33;33754;-79
2023/01/30 08:52:04;;;;;;;25.60;16.23;;;;;;;7.01;47.71;100056.34;4260379;33;33860;-80
2023/01/30 08:54:32;;;;;;;25.55;14.45;;;;;;;7.05;47.82;100058.31;4260185;33;33861;-80
2023/01/30 08:56:59;;;;;;;28.90;16.05;;;;;;;8.10;45.85;100060.41;4262091;33;34349;-79
2023/01/30 08:59:27;;;;;;;22.37;12.23;;;;;;;6.78;48.45;100060.94;4264048;33;33302;-78
2023/01/30 09:01:54;;;;;;;24.02;12.88;;;;;;;7.63;46.11;100056.78;4265704;33;33341;-79
2023/01/30 09:04:23;;;;;;;24.15;12.80;;;;;;;7.54;46.56;100063.94;4260600;33;34457;-79
2023/01/30 09:06:51;;;;;;;26.08;11.52;;;;;;;4.46;53.42;100071.66;4259209;33;33153;-79
2023/01/30 09:09:19;;;;;;;31.87;13.52;;;;;;;3.59;58.78;100067.66;4257514;33;34601;-80
2023/01/30 09:11:47;;;;;;;29.75;14.35;;;;;;;5.66;53.80;100069.84;4244519;33;32302;-79
2023/01/30 09:14:18;;;;;;;28.92;16.12;;;;;;;3.48;59.02;100060.06;4260543;33;33829;-81
2023/01/30 09:16:48;;;;;;;26.50;13.85;;;;;;;6.46;50.78;100044.31;4257580;33;33473;-79
2023/01/30 09:19:15;;;;;;;29.58;13.38;;;;;;;7.06;49.08;100047.22;4258601;33;34244;-81
2023/01/30 09:21:43;;;;;;;;;;;;;;;4.73;54.07;100048.75;4259132;33;33725;-79
2023/01/30 09:24:10;;;;;;;26.12;12.43;;;;;;;2.94;61.65;100052.44;4260321;33;34435;-81
2023/01/30 09:26:39;;;;;;;;;;;;;;;3.01;62.46;100053.81;4260772;33;33607;-80
2023/01/30 09:29:06;;;;;;;25.45;12.40;;;;;;;3.42;61.62;100053.56;4259135;33;33873;-79
2023/01/30 09:31:34;;;;;;;23.35;12.00;;;;;;;4.29;59.27;100038.75;4259664;33;33844;-80
2023/01/30 09:34:02;;;;;;;28.95;13.05;;;;;;;4.44;58.21;100029.63;4260383;33;34078;-80
2023/01/30 09:36:29;;;;;;;;;;;;;;;2.37;64.06;100041.09;4259056;33;33709;-78
2023/01/30 09:38:57;;;;;;;26.85;12.45;;;;;;;3.67;61.08;100036.75;4259336;33;34143;-80
2023/01/30 09:41:49;;;;;;;25.77;12.45;;;;;;;2.12;66.05;100039.91;4260001;33;34084;-80
2023/01/30 09:44:22;;;;;;;;;;;;;;;2.07;66.87;100039.53;4259831;33;33819;-80
2023/01/30 09:47:12;;;;;;;;;;;;;;;3.33;62.48;100036.72;4244907;33;34244;-79
2023/01/30 09:49:55;;;;;;;;;;;;;;;1.82;68.91;100035.72;4252496;33;34233;-79
2023/01/30 09:52:31;;;;;;;;;;;;;;;1.62;69.45;100027.28;4259964;33;33910;-80
2023/01/30 09:55:14;;;;;;;;;;;;;;;1.46;70.04;100024.22;4259059;33;34368;-80
2023/01/30 09:57:41;;;;;;;;;;;;;;;1.96;69.02;100009.66;4250745;33;33869;-79
2023/01/30 10:00:12;;;;;;;;;;;;;;;1.81;69.34;100010.94;4259651;33;35059;-79
2023/01/30 10:02:40;;;;;;;;;;;;;;;1.93;69.36;99996.62;4259592;33;33952;-78
2023/01/30 10:05:07;;;;;;;;;;;;;;;2.08;69.03;99990.19;4258165;33;33940;-79
2023/01/30 10:07:48;;;;;;;;;;;;;;;3.65;64.37;99992.19;4263277;33;33679;-79
2023/01/30 10:10:25;;;;;;;29.77;14.07;;;;;;;2.52;65.90;99990.31;4246446;33;33667;-80
2023/01/30 10:13:09;;;;;;;27.58;12.77;;;;;;;2.03;68.52;99976.19;4246569;33;34337;-79
2023/01/30 10:15:49;;;;;;;32.85;17.25;;;;;;;3.67;63.84;99962.44;4256205;33;33186;-78
2023/01/30 10:18:48;;;;;;;31.33;17.63;;;;;;;3.43;63.69;99963.16;4252427;33;33636;-79
2023/01/30 10:21:46;;;;;;;29.02;14.23;;;;;;;2.87;65.84;99964.06;4258671;33;33950;-78
2023/01/30 10:24:40;;;;;;;27.37;13.80;;;;;;;2.75;67.21;99958.88;4254818;33;33538;-79
2023/01/30 10:27:15;;;;;;;27.33;13.13;;;;;;;2.97;65.85;99952.88;4258972;33;34187;-80
2023/01/30 10:29:53;;;;;;;;;;;;;;;2.37;66.61;99954.19;4244320;33;33496;-80
2023/01/30 10:32:27;;;;;;;29.80;13.52;;;;;;;2.60;66.68;99952.56;4254409;33;34327;-79
2023/01/30 10:34:58;;;;;;;31.00;13.57;;;;;;;2.95;65.61;99942.53;4257520;33;34008;-78
2023/01/30 10:37:31;;;;;;;25.17;13.27;;;;;;;1.84;69.37;99926.91;4246223;33;33198;-79
2023/01/30 10:40:02;;;;;;;;;;;;;;;2.58;67.09;99928.53;4258423;33;33792;-79
2023/01/30 10:42:47;;;;;;;26.45;13.40;;;;;;;2.66;67.55;99931.69;4246894;33;34800;-78
2023/01/30 10:45:19;;;;;;;24.27;11.68;;;;;;;2.99;66.39;99917.16;4249997;33;32348;-78
2023/01/30 10:47:54;;;;;;;21.65;11.45;;;;;;;1.93;69.51;99908.13;4245191;33;33855;-79
2023/01/30 10:51:13;;;;;;;29.15;15.13;;;;;;;1.99;70.01;99907.72;4247147;33;33626;-80
2023/01/30 10:53:47;;;;;;;26.58;13.98;;;;;;;1.88;69.85;99898.28;4240916;33;33687;-80
2023/01/30 10:56:19;;;;;;;;;;;;;;;2.93;66.24;99881.75;4251585;33;33180;-78
2023/01/30 10:58:58;;;;;;;26.12;13.13;;;;;;;2.76;67.13;99888.13;4248306;33;33919;-78
2023/01/30 11:01:40;;;;;;;27.50;12.25;;;;;;;3.12;65.63;99864.47;4259965;33;33625;-79
2023/01/30 11:04:35;;;;;;;22.05;12.80;;;;;;;2.72;65.90;99868.22;4242164;33;33487;-80
2023/01/30 11:07:04;;;;;;;27.42;15.20;;;;;;;2.89;65.56;99860.16;4257351;33;32745;-79
2023/01/30 11:09:43;;;;;;;25.08;12.55;;;;;;;2.73;66.07;99847.00;4247627;33;34753;-79
2023/01/30 11:12:11;;;;;;;25.77;13.07;;;;;;;2.09;68.18;99845.47;4260688;33;33745;-78
2023/01/30 11:14:59;;;;;;;24.65;12.27;;;;;;;1.98;69.27;99839.50;4241572;33;33626;-78
2023/01/30 11:17:28;;;;;;;;;;;;;;;3.15;66.80;99833.09;4245491;33;33532;-79
2023/01/30 11:19:57;;;;;;;23.65;12.07;;;;;;;2.86;66.76;99838.56;4259710;33;34597;-80
2023/01/30 11:22:25;;;;;;;26.40;13.38;;;;;;;3.16;66.42;99816.94;4247718;33;34467;-79
2023/01/30 11:25:23;;;;;;;26.37;12.13;;;;;;;4.17;62.57;99815.66;4260323;33;33799;-78
2023/01/30 11:27:53;;;;;;;26.25;13.00;;;;;;;5.00;60.32;99805.06;4250529;33;34448;-80
2023/01/30 11:30:26;;;;;;;25.15;12.93;;;;;;;5.02;59.74;99803.47;4260051;33;34104;-80
2023/01/30 11:33:10;;;;;;;24.95;13.50;;;;;;;5.40;58.60;99797.41;4236540;33;31760;-79
2023/01/30 11:35:57;;;;;;;24.60;13.07;;;;;;;3.97;61.33;99793.78;4251292;33;34735;-78
2023/01/30 11:38:31;;;;;;;27.13;12.93;;;;;;;3.51;64.82;99799.03;4258403;33;33837;-78
2023/01/30 11:41:10;;;;;;;23.00;13.40;;;;;;;3.66;64.35;99798.38;4247707;33;34660;-80
2023/01/30 11:43:38;;;;;;;23.95;11.30;;;;;;;3.23;65.32;99796.16;4237017;33;33490;-80
2023/01/30 11:46:08;;;;;;;23.23;11.88;;;;;;;3.02;66.72;99781.78;4246866;33;32879;-79
2023/01/30 11:48:46;;;;;;;22.58;11.73;;;;;;;3.00;65.71;99762.88;4246064;33;33964;-79
2023/01/30 11:51:34;;;;;;;;;;;;;;;2.91;66.87;99766.50;4260465;33;33881;-80
2023/01/30 11:54:04;;;;;;;24.33;11.80;;;;;;;3.24;65.20;99756.97;4247469;33;32138;-79